createdAt,value
2022-07-27T00:00:08.904Z,1.80
2022-07-27T00:01:08.870Z,1.60
2022-07-27T00:02:09.025Z,1.60
2022-07-27T00:03:08.751Z,1.60
2022-07-27T00:04:08.815Z,1.90
2022-07-27T00:05:08.742Z,1.70
2022-07-27T00:06:08.814Z,1.90
2022-07-27T00:07:08.711Z,1.80
2022-07-27T00:08:08.694Z,1.70
2022-07-27T00:09:09.168Z,2.00
2022-07-27T00:10:08.703Z,1.60
2022-07-27T00:11:08.671Z,1.80
2022-07-27T00:12:08.664Z,1.80
2022-07-27T00:13:08.655Z,1.60
2022-07-27T00:14:08.651Z,2.10
2022-07-27T00:15:08.716Z,1.80
2022-07-27T00:16:08.656Z,1.70
2022-07-27T00:17:08.619Z,1.50
2022-07-27T00:18:08.635Z,1.30
2022-07-27T00:19:09.617Z,1.30
2022-07-27T00:20:08.579Z,1.40
2022-07-27T00:21:08.575Z,1.60
2022-07-27T00:22:08.615Z,2.10
2022-07-27T00:23:08.538Z,1.70
2022-07-27T00:24:08.671Z,1.40
2022-07-27T00:25:08.620Z,1.60
2022-07-27T00:26:08.548Z,1.90
2022-07-27T00:27:08.507Z,1.50
2022-07-27T00:28:08.568Z,1.40
2022-07-27T00:29:08.923Z,1.70
2022-07-27T00:30:08.501Z,1.90
2022-07-27T00:31:08.520Z,1.40
2022-07-27T00:32:12.586Z,1.40
2022-07-27T00:33:08.438Z,1.60
2022-07-27T00:34:08.490Z,1.40
2022-07-27T00:35:08.497Z,1.50
2022-07-27T00:36:08.429Z,1.30
2022-07-27T00:37:08.392Z,1.50
2022-07-27T00:38:08.430Z,1.60
2022-07-27T00:39:08.676Z,1.80
2022-07-27T00:40:08.450Z,1.50
2022-07-27T00:41:08.363Z,1.90
2022-07-27T00:42:08.353Z,1.60
2022-07-27T00:43:08.414Z,1.70
2022-07-27T00:44:08.372Z,1.50
2022-07-27T00:45:08.317Z,1.60
2022-07-27T00:46:08.312Z,1.90
2022-07-27T00:47:08.327Z,1.80
2022-07-27T00:48:08.343Z,2.00
2022-07-27T00:49:08.821Z,2.00
2022-07-27T00:50:08.421Z,1.70
2022-07-27T00:51:08.338Z,1.60
2022-07-27T00:52:08.254Z,1.80
2022-07-27T00:53:08.234Z,1.80
2022-07-27T00:54:10.056Z,1.60
2022-07-27T00:55:08.297Z,1.70
2022-07-27T00:56:08.236Z,1.80
2022-07-27T00:57:08.278Z,1.90
2022-07-27T00:58:08.208Z,1.50
2022-07-27T00:59:08.442Z,1.20
2022-07-27T01:00:08.148Z,1.50
2022-07-27T01:01:08.254Z,1.50
2022-07-27T01:02:11.285Z,1.50
2022-07-27T01:03:09.046Z,1.70
2022-07-27T01:04:08.308Z,2.10
2022-07-27T01:05:08.234Z,1.80
2022-07-27T01:06:08.152Z,1.30
2022-07-27T01:07:08.101Z,1.40
2022-07-27T01:08:08.108Z,1.50
2022-07-27T01:09:08.380Z,1.70
2022-07-27T01:10:08.151Z,1.50
2022-07-27T01:11:08.031Z,1.70
2022-07-27T01:12:08.525Z,1.40
2022-07-27T01:13:12.465Z,1.80
2022-07-27T01:14:08.997Z,2.00
2022-07-27T01:15:08.049Z,2.30
2022-07-27T01:16:08.119Z,1.70
2022-07-27T01:17:08.011Z,1.30
2022-07-27T01:18:08.052Z,1.40
2022-07-27T01:19:07.951Z,1.70
2022-07-27T01:20:07.993Z,1.20
2022-07-27T01:21:07.962Z,1.40
2022-07-27T01:22:07.924Z,2.30
2022-07-27T01:23:08.002Z,1.40
2022-07-27T01:24:08.084Z,1.20
2022-07-27T01:25:07.968Z,1.30
2022-07-27T01:26:07.883Z,1.40
2022-07-27T01:27:07.983Z,1.30
2022-07-27T01:28:07.854Z,1.40
2022-07-27T01:29:08.126Z,1.40
2022-07-27T01:30:07.930Z,1.20
2022-07-27T01:31:07.843Z,1.90
2022-07-27T01:32:07.864Z,1.70
2022-07-27T01:33:07.785Z,1.60
2022-07-27T01:34:07.887Z,1.60
2022-07-27T01:35:07.831Z,1.50
2022-07-27T01:36:07.750Z,1.90
2022-07-27T01:37:07.790Z,1.70
2022-07-27T01:38:07.872Z,1.70
2022-07-27T01:39:09.076Z,1.60
2022-07-27T01:40:07.889Z,1.60
2022-07-27T01:41:07.755Z,1.60
2022-07-27T01:42:07.795Z,1.60
2022-07-27T01:43:07.707Z,1.80
2022-07-27T01:44:07.690Z,1.40
2022-07-27T01:45:07.806Z,1.40
2022-07-27T01:46:07.752Z,1.30
2022-07-27T01:47:14.306Z,1.50
2022-07-27T01:48:08.629Z,1.70
2022-07-27T01:49:07.798Z,1.80
2022-07-27T01:50:07.678Z,2.10
2022-07-27T01:51:07.640Z,1.60
2022-07-27T01:52:07.573Z,1.70
2022-07-27T01:53:09.257Z,1.30
2022-07-27T01:54:07.556Z,1.80
2022-07-27T01:55:07.615Z,1.40
2022-07-27T01:56:10.323Z,1.80
2022-07-27T01:57:07.576Z,1.70
2022-07-27T01:58:07.533Z,1.30
2022-07-27T01:59:07.642Z,1.30
2022-07-27T02:00:08.543Z,1.40
2022-07-27T02:01:07.559Z,1.70
2022-07-27T02:02:07.610Z,1.60
2022-07-27T02:03:07.526Z,1.70
2022-07-27T02:04:07.829Z,1.60
2022-07-27T02:05:07.606Z,1.50
2022-07-27T02:06:07.472Z,1.50
2022-07-27T02:07:07.513Z,1.90
2022-07-27T02:08:07.508Z,1.60
2022-07-27T02:09:07.385Z,1.60
2022-07-27T02:10:07.414Z,1.90
2022-07-27T02:11:07.439Z,1.70
2022-07-27T02:12:07.366Z,2.30
2022-07-27T02:13:21.959Z,1.40
2022-07-27T02:14:08.336Z,1.40
2022-07-27T02:15:07.453Z,1.30
2022-07-27T02:16:08.723Z,1.80
2022-07-27T02:17:08.306Z,1.40
2022-07-27T02:18:33.643Z,1.60
2022-07-27T02:19:08.888Z,1.70
2022-07-27T02:20:07.306Z,1.40
2022-07-27T02:21:07.339Z,1.50
2022-07-27T02:22:08.080Z,1.40
2022-07-27T02:23:07.295Z,1.60
2022-07-27T02:24:07.259Z,1.40
2022-07-27T02:25:07.262Z,1.50
2022-07-27T02:26:07.230Z,1.60
2022-07-27T02:27:07.188Z,1.40
2022-07-27T02:28:07.304Z,1.80
2022-07-27T02:29:07.237Z,1.50
2022-07-27T02:30:07.291Z,1.40
2022-07-27T02:31:07.218Z,1.90
2022-07-27T02:32:07.264Z,1.50
2022-07-27T02:33:07.280Z,1.70
2022-07-27T02:34:07.150Z,1.60
2022-07-27T02:35:18.906Z,1.50
2022-07-27T02:36:08.154Z,1.70
2022-07-27T02:37:07.243Z,1.50
2022-07-27T02:38:07.116Z,1.30
2022-07-27T02:39:07.072Z,1.40
2022-07-27T02:40:07.198Z,2.10
2022-07-27T02:41:07.167Z,1.60
2022-07-27T02:42:07.115Z,1.50
2022-07-27T02:43:07.133Z,1.60
2022-07-27T02:44:07.081Z,1.40
2022-07-27T02:45:07.095Z,1.40
2022-07-27T02:46:07.094Z,1.50
2022-07-27T02:47:07.059Z,1.40
2022-07-27T02:48:08.334Z,1.60
2022-07-27T02:49:07.133Z,1.70
2022-07-27T02:50:07.031Z,1.70
2022-07-27T02:51:07.038Z,1.50
2022-07-27T02:52:06.975Z,1.90
2022-07-27T02:53:06.949Z,1.70
2022-07-27T02:54:07.124Z,1.50
2022-07-27T02:55:07.012Z,2.00
2022-07-27T02:56:06.981Z,1.40
2022-07-27T02:57:06.973Z,1.40
2022-07-27T02:58:06.922Z,1.40
2022-07-27T02:59:06.939Z,1.40
2022-07-27T03:00:06.942Z,1.50
2022-07-27T03:01:07.142Z,1.30
2022-07-27T03:02:06.830Z,1.30
2022-07-27T03:03:07.009Z,1.30
2022-07-27T03:04:07.240Z,1.30
2022-07-27T03:05:06.824Z,1.20
2022-07-27T03:06:06.855Z,1.40
2022-07-27T03:07:06.860Z,1.40
2022-07-27T03:08:06.891Z,1.40
2022-07-27T03:09:06.742Z,1.60
2022-07-27T03:10:06.780Z,1.60
2022-07-27T03:11:06.820Z,1.40
2022-07-27T03:12:06.790Z,1.50
2022-07-27T03:13:06.828Z,1.30
2022-07-27T03:14:06.713Z,1.40
2022-07-27T03:15:06.741Z,1.80
2022-07-27T03:16:06.901Z,1.60
2022-07-27T03:17:06.654Z,1.50
2022-07-27T03:18:06.754Z,1.70
2022-07-27T03:19:06.671Z,1.50
2022-07-27T03:20:08.069Z,1.30
2022-07-27T03:21:06.683Z,1.50
2022-07-27T03:22:06.684Z,1.50
2022-07-27T03:23:06.646Z,1.70
2022-07-27T03:24:06.633Z,1.70
2022-07-27T03:25:06.709Z,1.50
2022-07-27T03:26:06.672Z,1.50
2022-07-27T03:27:06.625Z,1.60
2022-07-27T03:28:06.653Z,1.60
2022-07-27T03:29:06.596Z,1.60
2022-07-27T03:30:06.537Z,1.80
2022-07-27T03:31:06.775Z,1.80
2022-07-27T03:32:06.546Z,1.70
2022-07-27T03:33:06.562Z,1.50
2022-07-27T03:34:06.563Z,1.60
2022-07-27T03:35:06.520Z,1.60
2022-07-27T03:36:06.579Z,1.40
2022-07-27T03:37:06.487Z,1.50
2022-07-27T03:38:06.507Z,1.50
2022-07-27T03:39:06.491Z,1.50
2022-07-27T03:40:06.455Z,1.70
2022-07-27T03:41:06.514Z,1.60
2022-07-27T03:42:06.481Z,1.70
2022-07-27T03:43:06.426Z,1.50
2022-07-27T03:44:06.446Z,1.40
2022-07-27T03:45:06.389Z,1.70
2022-07-27T03:46:06.432Z,1.70
2022-07-27T03:47:06.556Z,1.50
2022-07-27T03:48:06.450Z,1.50
2022-07-27T03:49:14.237Z,1.50
2022-07-27T03:50:07.321Z,1.70
2022-07-27T03:51:06.539Z,1.50
2022-07-27T03:52:06.385Z,1.70
2022-07-27T03:53:06.495Z,1.60
2022-07-27T03:54:06.275Z,1.90
2022-07-27T03:55:06.309Z,1.90
2022-07-27T03:56:06.276Z,1.50
2022-07-27T03:57:06.225Z,2.10
2022-07-27T03:58:06.223Z,1.90
2022-07-27T03:59:06.203Z,2.10
2022-07-27T04:00:06.193Z,2.00
2022-07-27T04:01:06.514Z,1.70
2022-07-27T04:02:06.301Z,1.60
2022-07-27T04:03:06.153Z,2.00
2022-07-27T04:04:06.234Z,2.00
2022-07-27T04:05:06.132Z,1.90
2022-07-27T04:06:06.116Z,2.10
2022-07-27T04:07:06.116Z,1.60
2022-07-27T04:08:06.096Z,2.10
2022-07-27T04:09:12.364Z,1.50
2022-07-27T04:10:07.081Z,1.70
2022-07-27T04:11:06.215Z,1.80
2022-07-27T04:12:06.139Z,1.70
2022-07-27T04:13:06.145Z,1.70
2022-07-27T04:14:06.048Z,1.90
2022-07-27T04:15:06.084Z,1.80
2022-07-27T04:16:06.182Z,1.90
2022-07-27T04:17:06.061Z,1.60
2022-07-27T04:18:06.097Z,1.80
2022-07-27T04:19:05.979Z,1.50
2022-07-27T04:20:06.172Z,1.80
2022-07-27T04:21:07.108Z,1.90
2022-07-27T04:22:06.137Z,1.30
2022-07-27T04:23:06.014Z,1.60
2022-07-27T04:24:06.198Z,1.50
2022-07-27T04:25:05.919Z,1.90
2022-07-27T04:26:05.899Z,1.50
2022-07-27T04:27:05.966Z,1.70
2022-07-27T04:28:05.903Z,1.60
2022-07-27T04:29:05.930Z,1.40
2022-07-27T04:30:09.387Z,1.70
2022-07-27T04:31:05.910Z,1.70
2022-07-27T04:32:05.862Z,1.60
2022-07-27T04:33:05.831Z,1.80
2022-07-27T04:34:05.878Z,2.00
2022-07-27T04:35:05.811Z,1.50
2022-07-27T04:36:05.792Z,1.60
2022-07-27T04:37:05.792Z,1.70
2022-07-27T04:38:05.773Z,1.80
2022-07-27T04:39:05.772Z,1.70
2022-07-27T04:40:06.119Z,1.70
2022-07-27T04:41:05.813Z,1.60
2022-07-27T04:42:05.808Z,1.50
2022-07-27T04:43:05.776Z,1.80
2022-07-27T04:44:05.818Z,1.30
2022-07-27T04:45:05.703Z,1.80
2022-07-27T04:46:05.800Z,1.60
2022-07-27T04:47:05.694Z,1.40
2022-07-27T04:48:05.705Z,1.80
2022-07-27T04:49:05.686Z,1.30
2022-07-27T04:50:05.678Z,1.70
2022-07-27T04:51:05.724Z,1.50
2022-07-27T04:52:05.637Z,1.60
2022-07-27T04:53:05.738Z,1.60
2022-07-27T04:54:05.610Z,1.90
2022-07-27T04:55:05.587Z,1.40
2022-07-27T04:56:05.584Z,1.60
2022-07-27T04:57:05.721Z,1.80
2022-07-27T04:58:05.560Z,1.50
2022-07-27T04:59:05.549Z,1.80
2022-07-27T05:00:05.539Z,1.80
2022-07-27T05:01:05.553Z,1.50
2022-07-27T05:02:05.553Z,1.50
2022-07-27T05:03:05.499Z,1.50
2022-07-27T05:04:05.588Z,1.60
2022-07-27T05:05:05.480Z,1.40
2022-07-27T05:06:05.469Z,1.60
2022-07-27T05:07:05.492Z,1.70
2022-07-27T05:08:05.451Z,1.60
2022-07-27T05:09:05.441Z,2.00
2022-07-27T05:10:05.430Z,2.20
2022-07-27T05:11:05.419Z,1.90
2022-07-27T05:12:05.430Z,2.20
2022-07-27T05:13:07.367Z,2.10
2022-07-27T05:14:05.392Z,1.90
2022-07-27T05:15:05.381Z,2.20
2022-07-27T05:16:05.423Z,2.20
2022-07-27T05:17:05.352Z,1.90
2022-07-27T05:18:05.366Z,2.40
2022-07-27T05:19:05.342Z,2.00
2022-07-27T05:20:05.315Z,1.90
2022-07-27T05:21:05.331Z,1.90
2022-07-27T05:22:05.293Z,1.90
2022-07-27T05:23:05.335Z,1.90
2022-07-27T05:24:05.293Z,2.30
2022-07-27T05:25:05.263Z,1.80
2022-07-27T05:26:05.298Z,2.20
2022-07-27T05:27:05.233Z,2.30
2022-07-27T05:28:05.235Z,2.40
2022-07-27T05:29:05.227Z,2.30
2022-07-27T05:30:05.232Z,2.00
2022-07-27T05:31:05.198Z,2.40
2022-07-27T05:32:05.288Z,1.90
2022-07-27T05:33:05.189Z,2.00
2022-07-27T05:34:05.190Z,2.20
2022-07-27T05:35:05.156Z,2.00
2022-07-27T05:36:07.739Z,2.00
2022-07-27T05:37:05.129Z,2.10
2022-07-27T05:38:05.147Z,2.30
2022-07-27T05:39:06.447Z,2.10
2022-07-27T05:40:05.121Z,2.60
2022-07-27T05:41:05.088Z,2.10
2022-07-27T05:42:05.080Z,2.50
2022-07-27T05:43:05.078Z,2.10
2022-07-27T05:44:05.196Z,1.90
2022-07-27T05:45:05.108Z,2.00
2022-07-27T05:46:05.132Z,2.00
2022-07-27T05:47:06.150Z,2.20
2022-07-27T05:48:05.034Z,2.00
2022-07-27T05:49:05.091Z,1.80
2022-07-27T05:50:05.003Z,2.00
2022-07-27T05:51:05.022Z,2.10
2022-07-27T05:52:04.971Z,2.40
2022-07-27T05:53:04.962Z,2.20
2022-07-27T05:54:04.953Z,2.40
2022-07-27T05:55:04.938Z,1.80
2022-07-27T05:56:04.932Z,2.40
2022-07-27T05:57:04.921Z,1.70
2022-07-27T05:58:04.950Z,2.20
2022-07-27T05:59:07.320Z,1.40
2022-07-27T06:00:04.891Z,1.90
2022-07-27T06:01:04.929Z,2.30
2022-07-27T06:02:04.863Z,2.20
2022-07-27T06:03:04.928Z,2.40
2022-07-27T06:04:04.976Z,2.10
2022-07-27T06:05:04.825Z,1.90
2022-07-27T06:06:04.838Z,1.70
2022-07-27T06:07:04.805Z,2.30
2022-07-27T06:08:04.825Z,1.80
2022-07-27T06:09:04.786Z,1.70
2022-07-27T06:10:05.297Z,1.60
2022-07-27T06:11:04.767Z,1.70
2022-07-27T06:12:04.777Z,1.60
2022-07-27T06:13:04.739Z,1.80
2022-07-27T06:14:04.748Z,1.50
2022-07-27T06:15:04.718Z,1.50
2022-07-27T06:16:04.949Z,1.90
2022-07-27T06:17:04.702Z,1.70
2022-07-27T06:18:04.812Z,1.80
2022-07-27T06:19:04.681Z,2.10
2022-07-27T06:20:04.672Z,2.00
2022-07-27T06:21:04.679Z,1.80
2022-07-27T06:22:04.651Z,1.90
2022-07-27T06:23:07.949Z,1.50
2022-07-27T06:24:04.641Z,2.40
2022-07-27T06:25:04.604Z,1.60
2022-07-27T06:26:04.623Z,1.90
2022-07-27T06:27:04.593Z,1.60
2022-07-27T06:28:04.701Z,2.20
2022-07-27T06:29:10.485Z,1.50
2022-07-27T06:30:05.586Z,1.70
2022-07-27T06:31:04.573Z,1.60
2022-07-27T06:32:04.674Z,1.70
2022-07-27T06:33:04.862Z,1.80
2022-07-27T06:34:08.216Z,1.90
2022-07-27T06:35:05.504Z,1.60
2022-07-27T06:36:04.534Z,2.00
2022-07-27T06:37:04.478Z,1.60
2022-07-27T06:38:04.477Z,1.60
2022-07-27T06:39:04.477Z,1.40
2022-07-27T06:40:04.457Z,2.00
2022-07-27T06:41:04.448Z,1.40
2022-07-27T06:42:04.471Z,1.90
2022-07-27T06:43:04.438Z,1.90
2022-07-27T06:44:04.473Z,1.90
2022-07-27T06:45:04.412Z,1.70
2022-07-27T06:46:04.484Z,1.60
2022-07-27T06:47:04.421Z,1.80
2022-07-27T06:48:04.433Z,1.80
2022-07-27T06:49:04.413Z,1.70
2022-07-27T06:50:04.378Z,1.70
2022-07-27T06:51:04.389Z,2.20
2022-07-27T06:52:04.357Z,1.90
2022-07-27T06:53:04.329Z,1.80
2022-07-27T06:54:04.348Z,1.80
2022-07-27T06:55:04.340Z,2.10
2022-07-27T06:56:04.316Z,1.70
2022-07-27T06:57:04.274Z,1.50
2022-07-27T06:58:04.283Z,1.60
2022-07-27T06:59:04.265Z,1.60
2022-07-27T07:00:04.240Z,2.00
2022-07-27T07:01:04.307Z,1.80
2022-07-27T07:02:04.236Z,1.80
2022-07-27T07:03:04.219Z,1.90
2022-07-27T07:04:04.260Z,1.70
2022-07-27T07:05:04.204Z,1.90
2022-07-27T07:06:04.276Z,1.80
2022-07-27T07:07:07.291Z,1.70
2022-07-27T07:08:04.216Z,2.00
2022-07-27T07:09:04.169Z,1.80
2022-07-27T07:10:04.130Z,2.00
2022-07-27T07:11:04.122Z,1.90
2022-07-27T07:12:04.130Z,1.60
2022-07-27T07:13:04.113Z,1.70
2022-07-27T07:14:04.290Z,1.50
2022-07-27T07:15:04.084Z,1.70
2022-07-27T07:16:04.163Z,2.00
2022-07-27T07:17:04.063Z,2.30
2022-07-27T07:18:04.154Z,2.20
2022-07-27T07:19:04.053Z,2.00
2022-07-27T07:20:04.063Z,1.90
2022-07-27T07:21:04.016Z,1.90
2022-07-27T07:22:04.072Z,1.90
2022-07-27T07:23:04.001Z,1.80
2022-07-27T07:24:04.016Z,2.00
2022-07-27T07:25:03.979Z,2.20
2022-07-27T07:26:03.957Z,2.00
2022-07-27T07:27:03.968Z,2.40
2022-07-27T07:28:03.996Z,2.00
2022-07-27T07:29:03.948Z,2.90
2022-07-27T07:30:03.961Z,1.90
2022-07-27T07:31:03.995Z,1.80
2022-07-27T07:32:03.918Z,1.70
2022-07-27T07:33:03.891Z,1.80
2022-07-27T07:34:03.882Z,2.10
2022-07-27T07:35:03.879Z,1.70
2022-07-27T07:36:14.191Z,1.90
2022-07-27T07:37:04.861Z,1.90
2022-07-27T07:38:03.863Z,1.40
2022-07-27T07:39:03.845Z,1.80
2022-07-27T07:40:25.339Z,1.60
2022-07-27T07:41:04.806Z,1.60
2022-07-27T07:42:03.825Z,1.40
2022-07-27T07:43:03.783Z,1.30
2022-07-27T07:44:03.845Z,1.60
2022-07-27T07:45:03.769Z,1.60
2022-07-27T07:46:03.872Z,1.50
2022-07-27T07:47:03.879Z,1.50
2022-07-27T07:48:03.728Z,1.30
2022-07-27T07:49:03.782Z,1.50
2022-07-27T07:50:03.706Z,1.60
2022-07-27T07:51:03.701Z,1.40
2022-07-27T07:52:03.754Z,1.30
2022-07-27T07:53:03.681Z,1.30
2022-07-27T07:54:03.724Z,1.00
2022-07-27T07:55:03.661Z,1.00
2022-07-27T07:56:03.653Z,1.20
2022-07-27T07:57:03.633Z,1.30
2022-07-27T07:58:03.723Z,0.80
2022-07-27T07:59:03.645Z,1.00
2022-07-27T08:00:03.657Z,0.80
2022-07-27T08:01:03.593Z,0.90
2022-07-27T08:02:03.603Z,0.80
2022-07-27T08:03:03.725Z,1.10
2022-07-27T08:04:03.595Z,0.80
2022-07-27T08:05:03.557Z,0.90
2022-07-27T08:06:03.548Z,0.70
2022-07-27T08:07:03.537Z,0.90
2022-07-27T08:08:03.572Z,0.80
2022-07-27T08:09:03.583Z,0.80
2022-07-27T08:10:03.537Z,0.80
2022-07-27T08:11:03.501Z,1.00
2022-07-27T08:12:03.501Z,0.70
2022-07-27T08:13:03.478Z,0.80
2022-07-27T08:14:03.482Z,1.00
2022-07-27T08:15:03.471Z,0.90
2022-07-27T08:16:03.533Z,0.90
2022-07-27T08:17:03.442Z,1.00
2022-07-27T08:18:03.429Z,1.10
2022-07-27T08:19:03.463Z,1.10
2022-07-27T08:20:03.449Z,0.90
2022-07-27T08:21:03.404Z,1.10
2022-07-27T08:22:03.376Z,1.20
2022-07-27T08:23:03.398Z,1.30
2022-07-27T08:24:03.367Z,1.10
2022-07-27T08:25:03.355Z,0.90
2022-07-27T08:26:07.715Z,1.00
2022-07-27T08:27:03.346Z,0.90
2022-07-27T08:28:03.386Z,1.00
2022-07-27T08:29:13.370Z,1.10
2022-07-27T08:30:04.329Z,1.20
2022-07-27T08:31:15.275Z,1.30
2022-07-27T08:32:05.879Z,1.00
2022-07-27T08:33:03.271Z,1.10
2022-07-27T08:34:03.271Z,1.00
2022-07-27T08:35:03.261Z,1.00
2022-07-27T08:36:03.264Z,0.90
2022-07-27T08:37:03.224Z,0.90
2022-07-27T08:38:03.281Z,1.00
2022-07-27T08:39:03.206Z,1.30
2022-07-27T08:40:38.848Z,1.00
2022-07-27T08:41:04.194Z,0.90
2022-07-27T08:42:03.213Z,0.80
2022-07-27T08:43:03.176Z,0.70
2022-07-27T08:44:03.175Z,0.70
2022-07-27T08:45:03.169Z,0.90
2022-07-27T08:46:03.231Z,0.70
2022-07-27T08:47:03.223Z,0.80
2022-07-27T08:48:03.190Z,0.90
2022-07-27T08:49:03.167Z,1.00
2022-07-27T08:50:03.111Z,0.80
2022-07-27T08:51:03.092Z,0.90
2022-07-27T08:52:03.077Z,0.90
2022-07-27T08:53:03.072Z,0.90
2022-07-27T08:54:03.061Z,0.90
2022-07-27T08:55:03.052Z,1.20
2022-07-27T08:56:03.057Z,1.20
2022-07-27T08:57:03.023Z,0.80
2022-07-27T08:58:04.021Z,0.80
2022-07-27T08:59:03.013Z,0.70
2022-07-27T09:00:03.058Z,1.00
2022-07-27T09:01:02.995Z,1.00
2022-07-27T09:02:03.695Z,1.00
2022-07-27T09:03:03.084Z,1.00
2022-07-27T09:04:03.004Z,1.00
2022-07-27T09:05:02.966Z,1.00
2022-07-27T09:06:02.990Z,1.00
2022-07-27T09:07:02.916Z,1.00
2022-07-27T09:08:02.962Z,1.00
2022-07-27T09:09:02.908Z,1.60
2022-07-27T09:10:02.930Z,1.00
2022-07-27T09:11:02.899Z,1.10
2022-07-27T09:12:02.928Z,1.20
2022-07-27T09:13:02.862Z,1.30
2022-07-27T09:14:02.877Z,1.20
2022-07-27T09:15:02.877Z,1.00
2022-07-27T09:16:20.047Z,1.00
2022-07-27T09:17:46.660Z,1.10
2022-07-27T09:18:03.941Z,1.00
2022-07-27T09:19:02.815Z,0.70
2022-07-27T09:20:02.822Z,0.60
2022-07-27T09:21:02.783Z,0.90
2022-07-27T09:22:03.028Z,0.80
2022-07-27T09:23:02.766Z,0.90
2022-07-27T09:24:02.825Z,1.00
2022-07-27T09:25:02.744Z,0.90
2022-07-27T09:26:08.596Z,0.70
2022-07-27T09:27:03.719Z,0.90
2022-07-27T09:28:02.717Z,0.90
2022-07-27T09:29:02.689Z,0.90
2022-07-27T09:30:02.768Z,0.90
2022-07-27T09:31:02.793Z,0.80
2022-07-27T09:32:02.675Z,1.00
2022-07-27T09:33:02.659Z,1.00
2022-07-27T09:34:02.781Z,0.90
2022-07-27T09:35:02.633Z,0.80
2022-07-27T09:36:02.702Z,1.10
2022-07-27T09:37:02.611Z,0.90
2022-07-27T09:38:02.712Z,1.20
2022-07-27T09:39:03.179Z,1.00
2022-07-27T09:40:02.595Z,0.70
2022-07-27T09:41:02.614Z,1.00
2022-07-27T09:42:03.038Z,0.80
2022-07-27T09:43:17.363Z,1.30
2022-07-27T09:45:03.526Z,1.00
2022-07-27T09:46:02.963Z,1.00
2022-07-27T09:47:02.526Z,1.00
2022-07-27T09:48:02.518Z,1.00
2022-07-27T09:49:02.576Z,1.20
2022-07-27T09:50:02.537Z,1.00
2022-07-27T09:51:05.504Z,0.90
2022-07-27T09:52:03.704Z,0.90
2022-07-27T09:53:19.684Z,1.00
2022-07-27T09:54:03.464Z,1.00
2022-07-27T09:55:02.441Z,0.80
2022-07-27T09:56:02.467Z,1.00
2022-07-27T09:57:02.431Z,1.00
2022-07-27T09:58:02.571Z,0.90
2022-07-27T09:59:02.390Z,0.90
2022-07-27T10:00:02.424Z,0.80
2022-07-27T10:01:02.388Z,1.10
2022-07-27T10:02:02.454Z,0.90
2022-07-27T10:03:02.344Z,0.90
2022-07-27T10:04:02.498Z,0.80
2022-07-27T10:05:02.458Z,0.90
2022-07-27T10:06:02.328Z,0.90
2022-07-27T10:07:04.680Z,0.90
2022-07-27T10:08:02.326Z,1.30
2022-07-27T10:09:02.277Z,1.20
2022-07-27T10:10:02.278Z,1.00
2022-07-27T10:11:04.077Z,1.00
2022-07-27T10:12:03.250Z,0.70
2022-07-27T10:13:02.237Z,0.90
2022-07-27T10:14:03.020Z,0.80
2022-07-27T10:15:02.222Z,1.30
2022-07-27T10:16:02.385Z,1.00
2022-07-27T10:17:02.222Z,1.00
2022-07-27T10:18:06.459Z,1.10
2022-07-27T10:19:02.242Z,1.00
2022-07-27T10:20:03.201Z,0.90
2022-07-27T10:21:02.175Z,1.10
2022-07-27T10:22:02.250Z,0.80
2022-07-27T10:23:02.133Z,0.90
2022-07-27T10:24:02.169Z,1.00
2022-07-27T10:25:02.115Z,0.90
2022-07-27T10:26:02.115Z,0.90
2022-07-27T10:27:02.094Z,0.90
2022-07-27T10:28:02.118Z,0.60
2022-07-27T10:29:02.076Z,0.90
2022-07-27T10:30:02.081Z,0.80
2022-07-27T10:31:02.180Z,0.90
2022-07-27T10:32:02.039Z,0.80
2022-07-27T10:33:02.028Z,0.80
2022-07-27T10:34:02.672Z,0.90
2022-07-27T10:35:02.011Z,0.80
2022-07-27T10:36:02.100Z,0.80
2022-07-27T10:37:01.989Z,0.80
2022-07-27T10:38:02.018Z,0.90
2022-07-27T10:39:01.999Z,0.90
2022-07-27T10:40:01.994Z,0.80
2022-07-27T10:41:01.962Z,1.00
2022-07-27T10:42:02.000Z,1.20
2022-07-27T10:43:01.924Z,0.80
2022-07-27T10:44:01.933Z,1.00
2022-07-27T10:45:01.923Z,0.90
2022-07-27T10:46:03.068Z,1.00
2022-07-27T10:47:01.891Z,0.70
2022-07-27T10:48:01.989Z,0.90
2022-07-27T10:49:01.952Z,1.00
2022-07-27T10:50:01.856Z,0.90
2022-07-27T10:51:01.868Z,0.90
2022-07-27T10:52:01.908Z,0.80
2022-07-27T10:53:01.818Z,0.80
2022-07-27T10:54:17.294Z,0.70
2022-07-27T10:55:02.798Z,0.70
2022-07-27T10:56:01.818Z,1.00
2022-07-27T10:57:01.785Z,0.90
2022-07-27T10:58:01.769Z,0.90
2022-07-27T10:59:01.768Z,0.70
2022-07-27T11:00:12.437Z,0.60
2022-07-27T11:01:02.798Z,0.90
2022-07-27T11:02:01.894Z,0.80
2022-07-27T11:03:01.713Z,0.80
2022-07-27T11:04:01.821Z,0.90
2022-07-27T11:05:01.694Z,0.80
2022-07-27T11:06:21.765Z,0.80
2022-07-27T11:07:24.098Z,0.70
2022-07-27T11:08:35.711Z,0.90
2022-07-27T11:10:04.463Z,1.00
2022-07-27T11:11:01.650Z,0.80
2022-07-27T11:12:01.638Z,0.70
2022-07-27T11:13:09.662Z,0.80
2022-07-27T11:14:02.699Z,0.70
2022-07-27T11:15:01.630Z,0.80
2022-07-27T11:16:22.958Z,0.80
2022-07-27T11:17:48.609Z,0.90
2022-07-27T11:18:04.927Z,0.60
2022-07-27T11:19:01.726Z,0.80
2022-07-27T11:20:01.553Z,0.60
2022-07-27T11:21:04.683Z,0.80
2022-07-27T11:22:04.515Z,0.60
2022-07-27T11:24:02.596Z,1.00
2022-07-27T11:25:01.492Z,0.60
2022-07-27T11:26:01.507Z,0.70
2022-07-27T11:27:01.474Z,0.60
2022-07-27T11:28:02.581Z,0.60
2022-07-27T11:29:01.455Z,0.80
2022-07-27T11:30:01.447Z,0.70
2022-07-27T11:31:03.560Z,1.20
2022-07-27T11:32:01.521Z,0.80
2022-07-27T11:33:01.417Z,0.80
2022-07-27T11:34:01.497Z,0.80
2022-07-27T11:35:01.398Z,0.80
2022-07-27T11:36:01.422Z,0.70
2022-07-27T11:37:01.382Z,0.90
2022-07-27T11:38:01.388Z,0.90
2022-07-27T11:39:01.371Z,1.40
2022-07-27T11:40:04.018Z,0.90
2022-07-27T11:41:16.885Z,0.90
2022-07-27T11:42:08.352Z,1.10
2022-07-27T11:43:02.326Z,0.90
2022-07-27T11:44:01.325Z,1.10
2022-07-27T11:45:01.303Z,1.00
2022-07-27T11:46:01.323Z,0.80
2022-07-27T11:47:02.111Z,0.90
2022-07-27T11:48:01.276Z,0.90
2022-07-27T11:49:09.524Z,1.10
2022-07-27T11:50:02.408Z,0.80
2022-07-27T11:51:01.248Z,0.80
2022-07-27T11:52:01.248Z,0.80
2022-07-27T11:53:01.944Z,0.90
2022-07-27T11:54:01.219Z,1.00
2022-07-27T11:55:01.201Z,0.90
2022-07-27T11:56:01.201Z,1.00
2022-07-27T11:57:01.203Z,1.00
2022-07-27T11:58:01.171Z,1.20
2022-07-27T11:59:01.645Z,1.30
2022-07-27T12:00:01.153Z,1.20
2022-07-27T12:01:01.143Z,0.80
2022-07-27T12:02:01.225Z,1.00
2022-07-27T12:03:01.123Z,1.00
2022-07-27T12:04:01.129Z,0.90
2022-07-27T12:05:03.178Z,1.00
2022-07-27T12:06:01.098Z,1.10
2022-07-27T12:07:01.101Z,1.00
2022-07-27T12:08:01.078Z,1.00
2022-07-27T12:09:01.056Z,1.00
2022-07-27T12:10:01.048Z,1.00
2022-07-27T12:11:01.038Z,1.10
2022-07-27T12:12:01.057Z,0.80
2022-07-27T12:13:01.018Z,1.00
2022-07-27T12:14:01.009Z,1.00
2022-07-27T12:15:00.999Z,0.90
2022-07-27T12:16:00.989Z,0.90
2022-07-27T12:17:01.033Z,1.10
2022-07-27T12:18:00.971Z,1.30
2022-07-27T12:19:00.963Z,1.30
2022-07-27T12:20:00.951Z,1.20
2022-07-27T12:21:00.932Z,1.10
2022-07-27T12:22:00.933Z,1.00
2022-07-27T12:23:00.917Z,0.90
2022-07-27T12:24:00.914Z,1.10
2022-07-27T12:25:00.893Z,1.00
2022-07-27T12:26:00.886Z,1.00
2022-07-27T12:27:05.980Z,0.90
2022-07-27T12:28:01.865Z,1.10
2022-07-27T12:29:00.857Z,1.00
2022-07-27T12:30:00.847Z,1.10
2022-07-27T12:31:00.870Z,1.10
2022-07-27T12:32:00.838Z,1.10
2022-07-27T12:33:00.817Z,1.00
2022-07-27T12:34:06.067Z,0.90
2022-07-27T12:35:01.795Z,1.00
2022-07-27T12:36:00.782Z,0.90
2022-07-27T12:37:00.779Z,0.80
2022-07-27T12:38:00.760Z,0.90
2022-07-27T12:39:00.752Z,1.00
2022-07-27T12:40:00.739Z,1.10
2022-07-27T12:41:01.451Z,1.30
2022-07-27T12:42:00.743Z,1.30
2022-07-27T12:43:00.702Z,1.50
2022-07-27T12:44:00.711Z,1.80
2022-07-27T12:45:00.685Z,1.70
2022-07-27T12:46:00.738Z,1.70
2022-07-27T12:47:00.684Z,1.70
2022-07-27T12:48:00.659Z,1.90
2022-07-27T12:49:00.720Z,1.60
2022-07-27T12:50:00.636Z,1.50
2022-07-27T12:51:00.616Z,1.80
2022-07-27T12:52:00.618Z,1.60
2022-07-27T12:53:00.608Z,1.50
2022-07-27T12:54:00.598Z,1.70
2022-07-27T12:55:00.577Z,1.50
2022-07-27T12:56:00.570Z,1.60
2022-07-27T12:57:00.571Z,1.70
2022-07-27T12:58:00.578Z,1.00
2022-07-27T12:59:00.550Z,1.40
2022-07-27T13:00:00.555Z,1.20
2022-07-27T13:01:00.607Z,1.40
2022-07-27T13:02:00.758Z,1.30
2022-07-27T13:03:00.610Z,1.10
2022-07-27T13:04:00.492Z,1.30
2022-07-27T13:05:00.471Z,1.30
2022-07-27T13:06:00.475Z,1.40
2022-07-27T13:07:00.467Z,1.30
2022-07-27T13:08:00.453Z,1.60
2022-07-27T13:09:00.434Z,1.30
2022-07-27T13:10:02.678Z,1.40
2022-07-27T13:11:00.405Z,1.50
2022-07-27T13:12:00.472Z,1.50
2022-07-27T13:13:00.386Z,1.70
2022-07-27T13:14:00.378Z,1.20
2022-07-27T13:15:00.373Z,1.40
2022-07-27T13:16:00.408Z,1.30
2022-07-27T13:17:00.448Z,1.50
2022-07-27T13:18:00.341Z,1.50
2022-07-27T13:19:00.323Z,1.40
2022-07-27T13:20:00.337Z,1.20
2022-07-27T13:21:00.303Z,1.60